Terminal Aerodrome Forecast
Issued by NWS Charleston, WV

Home | Current Version | Previous Version | Text Only | Print | Product List | Glossary On
Versions: 1 2 3 4 5 6 7 8 9 10 11 12 13 14 15 16 17 18 19 20 21 22 23 24 25 26 27 28
000
FTUS41 KRLX 060544
TAFBKW
TAF
KBKW 060544Z 0606/0706 14010G16KT P6SM OVC035
     FM060800 13013KT P6SM OVC020
     FM061300 13016KT 5SM -RA OVC015
      TEMPO 0613/0615 2SM -RA OVC007
     FM061500 13016KT 3SM -RA OVC025
     FM061800 13015KT 4SM -RA OVC015
     FM070000 18006KT 6SM -RA OVC008
     FM070200 26007KT P6SM BKN008=

USA.gov is the U.S. government's official web portal to all federal, state and local government web resources and services.